createdAt,value
2023-03-10T00:00:19.838Z,98667.31
2023-03-10T00:05:41.636Z,98665.47
2023-03-10T00:11:03.824Z,98662.47
2023-03-10T00:16:30.993Z,98661.97
2023-03-10T00:21:53.552Z,98660.94
2023-03-10T00:27:15.250Z,98663.81
2023-03-10T00:32:37.006Z,98660.53
2023-03-10T00:37:58.784Z,98662.56
2023-03-10T00:43:20.498Z,98656.81
2023-03-10T00:48:43.757Z,98659.06
2023-03-10T00:54:05.474Z,98660.81
2023-03-10T00:59:28.366Z,98665.81
2023-03-10T01:04:51.415Z,98662.53
2023-03-10T01:10:13.925Z,98649.28
2023-03-10T01:15:35.635Z,98653.47
2023-03-10T01:20:57.516Z,98637.97
2023-03-10T01:26:19.776Z,98635.81
2023-03-10T01:31:42.325Z,98622.25
2023-03-10T01:37:04.141Z,98619.00
2023-03-10T01:42:25.983Z,98625.66
2023-03-10T01:47:47.660Z,98612.41
2023-03-10T01:53:10.444Z,98603.56
2023-03-10T01:58:39.420Z,98592.47
2023-03-10T02:04:08.074Z,98587.53
2023-03-10T02:09:30.391Z,98577.91
2023-03-10T02:14:53.563Z,98575.44
2023-03-10T02:20:41.409Z,98567.13
2023-03-10T02:26:17.895Z,98557.78
2023-03-10T02:31:40.320Z,98552.84
2023-03-10T02:37:02.437Z,98540.13
2023-03-10T02:42:27.889Z,98527.41
2023-03-10T02:47:49.676Z,98535.22
2023-03-10T02:53:16.410Z,98530.47
2023-03-10T02:58:38.336Z,98523.28
2023-03-10T03:04:00.610Z,98516.44
2023-03-10T03:09:22.418Z,98504.84
2023-03-10T03:14:44.319Z,98509.56
2023-03-10T03:20:12.966Z,98506.28
2023-03-10T03:25:37.549Z,98504.63
2023-03-10T03:30:59.409Z,98502.16
2023-03-10T03:36:21.176Z,98495.00
2023-03-10T03:41:44.595Z,98486.16
2023-03-10T03:47:09.023Z,98476.22
2023-03-10T03:52:30.725Z,98486.78
2023-03-10T03:57:52.440Z,98474.84
2023-03-10T04:03:14.412Z,98477.63
2023-03-10T04:08:36.157Z,98470.75
2023-03-10T04:13:57.915Z,98464.69
2023-03-10T04:19:19.803Z,98463.88
2023-03-10T04:24:41.448Z,98471.38
2023-03-10T04:30:04.430Z,98468.09
2023-03-10T04:35:27.035Z,98464.50
2023-03-10T04:40:54.287Z,98455.38
2023-03-10T04:46:16.301Z,98457.63
2023-03-10T04:51:38.197Z,98449.66
2023-03-10T04:57:00.519Z,98454.34
2023-03-10T05:02:22.248Z,98451.91
2023-03-10T05:07:44.179Z,98464.91
2023-03-10T05:13:05.944Z,98463.25
2023-03-10T05:18:27.950Z,98471.56
2023-03-10T05:23:50.114Z,98464.69
2023-03-10T05:29:12.051Z,98453.94
2023-03-10T05:34:33.895Z,98452.28
2023-03-10T05:39:55.646Z,98452.28
2023-03-10T05:45:18.178Z,98453.41
2023-03-10T05:50:39.892Z,98463.97
2023-03-10T05:56:07.089Z,98463.97
2023-03-10T06:01:28.875Z,98462.59
2023-03-10T06:06:50.684Z,98469.50
2023-03-10T06:12:12.380Z,98468.72
2023-03-10T06:17:34.048Z,98479.81
2023-03-10T06:22:55.966Z,98473.13
2023-03-10T06:28:17.739Z,98460.69
2023-03-10T06:33:40.006Z,98457.06
2023-03-10T06:39:01.668Z,98463.63
2023-03-10T06:44:23.460Z,98473.41
2023-03-10T06:49:45.181Z,98460.47
2023-03-10T06:55:07.322Z,98462.53
2023-03-10T07:00:29.631Z,98469.31
2023-03-10T07:05:51.342Z,98473.34
2023-03-10T07:11:13.207Z,98471.00
2023-03-10T07:16:35.029Z,98469.13
2023-03-10T07:21:56.722Z,98478.38
2023-03-10T07:27:18.408Z,98478.16
2023-03-10T07:32:40.197Z,98486.59
2023-03-10T07:38:01.960Z,98492.94
2023-03-10T07:43:23.660Z,98494.56
2023-03-10T07:48:45.543Z,98497.16
2023-03-10T07:54:07.345Z,98494.19
2023-03-10T07:59:29.058Z,98496.75
2023-03-10T08:04:50.868Z,98499.59
2023-03-10T08:10:13.120Z,98497.44
2023-03-10T08:15:35.009Z,98502.78
2023-03-10T08:20:57.191Z,98512.53
2023-03-10T08:26:19.476Z,98495.91
2023-03-10T08:31:41.415Z,98506.78
2023-03-10T08:37:05.224Z,98505.25
2023-03-10T08:42:27.270Z,98498.16
2023-03-10T08:47:49.249Z,98494.78
2023-03-10T08:53:12.690Z,98492.47
2023-03-10T08:58:34.519Z,98493.44
2023-03-10T09:03:56.797Z,98487.53
2023-03-10T09:09:18.629Z,98489.56
2023-03-10T09:14:43.341Z,98481.75
2023-03-10T09:20:08.666Z,98487.09
2023-03-10T09:25:30.496Z,98479.50
2023-03-10T09:30:54.260Z,98487.44
2023-03-10T09:36:17.460Z,98482.00
2023-03-10T09:42:36.417Z,98488.50
2023-03-10T09:48:27.653Z,98480.09
2023-03-10T09:54:07.856Z,98477.25
2023-03-10T09:59:37.567Z,98483.22
2023-03-10T10:05:04.274Z,98487.78
2023-03-10T10:10:38.587Z,98504.41
2023-03-10T10:16:24.406Z,98505.03
2023-03-10T10:22:11.221Z,98516.72
2023-03-10T10:27:32.904Z,98515.72
2023-03-10T10:33:09.152Z,98513.75
2023-03-10T10:38:32.360Z,98506.91
2023-03-10T10:43:57.585Z,98498.06
2023-03-10T10:49:24.120Z,98492.63
2023-03-10T10:54:56.781Z,98487.81
2023-03-10T11:00:37.579Z,98505.91
2023-03-10T11:06:00.948Z,98514.50
2023-03-10T11:11:51.776Z,98537.72
2023-03-10T11:17:16.394Z,98534.31
2023-03-10T11:22:54.833Z,98514.19
2023-03-10T11:28:47.278Z,98506.28
2023-03-10T11:34:20.330Z,98514.78
2023-03-10T11:39:49.211Z,98513.84
2023-03-10T11:45:32.579Z,98520.13
2023-03-10T11:51:04.114Z,98519.50
2023-03-10T11:56:28.213Z,98505.63
2023-03-10T12:02:40.925Z,98509.53
2023-03-10T12:08:05.251Z,98516.31
2023-03-10T12:13:40.958Z,98514.19
2023-03-10T12:19:05.419Z,98510.66
2023-03-10T12:24:43.296Z,98507.72
2023-03-10T12:30:43.432Z,98521.69
2023-03-10T12:36:37.507Z,98547.88
2023-03-10T12:42:03.789Z,98561.84
2023-03-10T12:47:50.070Z,98554.94
2023-03-10T12:53:11.735Z,98553.91
2023-03-10T12:58:36.494Z,98546.72
2023-03-10T13:03:58.822Z,98563.97
2023-03-10T13:09:28.462Z,98571.75
2023-03-10T13:14:57.702Z,98577.91
2023-03-10T13:20:19.752Z,98614.56
2023-03-10T13:26:01.271Z,98627.59
2023-03-10T13:31:27.506Z,98657.84
2023-03-10T13:36:49.979Z,98684.25
2023-03-10T13:42:28.317Z,98703.09
2023-03-10T13:47:54.254Z,98741.69
2023-03-10T13:53:27.836Z,98746.38
2023-03-10T13:58:52.089Z,98763.59
2023-03-10T14:04:18.503Z,98781.13
2023-03-10T14:09:41.232Z,98853.25
2023-03-10T14:15:23.505Z,98907.59
2023-03-10T14:20:47.860Z,98943.69
2023-03-10T14:26:16.690Z,98975.25
2023-03-10T14:31:38.433Z,99035.59
2023-03-10T14:37:00.133Z,99060.81
2023-03-10T14:42:29.102Z,99123.72
2023-03-10T14:47:51.534Z,99177.47
2023-03-10T14:53:16.238Z,99227.84
2023-03-10T14:58:46.397Z,99251.72
2023-03-10T15:04:16.086Z,99296.59
2023-03-10T15:09:37.820Z,99319.25
2023-03-10T15:14:59.782Z,99353.59
2023-03-10T15:20:24.490Z,99394.03
2023-03-10T15:25:46.490Z,99461.38
2023-03-10T15:31:08.359Z,99505.41
2023-03-10T15:36:30.157Z,99513.69
2023-03-10T15:41:51.829Z,99608.69
2023-03-10T15:47:13.506Z,99641.66
2023-03-10T15:52:35.271Z,99653.28
2023-03-10T15:57:57.790Z,99677.97
2023-03-10T16:03:19.485Z,99700.13
2023-03-10T16:08:41.896Z,99737.00
2023-03-10T16:14:04.143Z,99767.53
2023-03-10T16:19:27.362Z,99816.03
2023-03-10T16:24:49.066Z,99840.47
2023-03-10T16:30:12.543Z,99847.38
2023-03-10T16:35:34.456Z,99850.69
2023-03-10T16:40:58.093Z,99893.34
2023-03-10T16:46:30.147Z,99907.47
2023-03-10T16:51:52.013Z,99885.00
2023-03-10T16:57:15.339Z,99919.88
2023-03-10T17:02:37.183Z,99947.88
2023-03-10T17:08:02.828Z,99984.19
2023-03-10T17:13:24.460Z,99994.97
2023-03-10T17:18:47.004Z,100010.53
2023-03-10T17:24:09.022Z,100030.25
2023-03-10T17:29:31.533Z,100049.72
2023-03-10T17:34:53.883Z,100062.22
2023-03-10T17:40:17.354Z,100079.84
2023-03-10T17:45:39.020Z,100109.31
2023-03-10T17:51:00.866Z,100134.59
2023-03-10T17:56:22.721Z,100144.00
2023-03-10T18:01:45.894Z,100158.66
2023-03-10T18:07:07.627Z,100203.84
2023-03-10T18:12:29.374Z,100217.91
2023-03-10T18:17:51.119Z,100223.69
2023-03-10T18:23:12.850Z,100237.47
2023-03-10T18:28:35.362Z,100257.13
2023-03-10T18:33:57.101Z,100268.06
2023-03-10T18:39:18.767Z,100270.53
2023-03-10T18:44:46.373Z,100279.41
2023-03-10T18:50:08.825Z,100286.72
2023-03-10T18:55:30.461Z,100298.72
2023-03-10T19:00:52.202Z,100292.03
2023-03-10T19:06:14.071Z,100317.34
2023-03-10T19:11:37.453Z,100335.72
2023-03-10T19:16:59.197Z,100335.44
2023-03-10T19:22:20.913Z,100339.59
2023-03-10T19:27:42.696Z,100346.81
2023-03-10T19:33:04.532Z,100368.00
2023-03-10T19:38:28.334Z,100386.09
2023-03-10T19:43:51.248Z,100395.22
2023-03-10T19:49:12.977Z,100400.78
2023-03-10T19:54:34.790Z,100405.78
2023-03-10T19:59:56.507Z,100407.47
2023-03-10T20:05:18.817Z,100415.34
2023-03-10T20:10:40.546Z,100430.31
2023-03-10T20:16:02.696Z,100442.50
2023-03-10T20:21:25.683Z,100444.91
2023-03-10T20:26:49.291Z,100458.75
2023-03-10T20:32:11.050Z,100451.38
2023-03-10T20:37:34.889Z,100464.09
2023-03-10T20:42:59.854Z,100477.66
2023-03-10T20:48:21.557Z,100481.75
2023-03-10T20:53:43.228Z,100483.59
2023-03-10T20:59:04.932Z,100471.22
2023-03-10T21:04:28.059Z,100495.66
2023-03-10T21:09:50.151Z,100503.19
2023-03-10T21:15:14.888Z,100511.38
2023-03-10T21:20:36.652Z,100538.31
2023-03-10T21:25:58.479Z,100554.63
2023-03-10T21:31:20.339Z,100564.47
2023-03-10T21:36:42.384Z,100562.09
2023-03-10T21:42:04.208Z,100581.19
2023-03-10T21:47:25.900Z,100579.53
2023-03-10T21:52:48.348Z,100593.22
2023-03-10T21:58:10.026Z,100601.06
2023-03-10T22:03:34.071Z,100609.41
2023-03-10T22:08:55.923Z,100606.91
2023-03-10T22:14:17.709Z,100614.09
2023-03-10T22:19:39.458Z,100610.72
2023-03-10T22:25:01.137Z,100619.56
2023-03-10T22:30:25.041Z,100624.50
2023-03-10T22:35:52.090Z,100619.69
2023-03-10T22:41:14.203Z,100624.91
2023-03-10T22:46:36.083Z,100639.03
2023-03-10T22:51:58.428Z,100641.50
2023-03-10T22:57:20.096Z,100655.28
2023-03-10T23:02:42.129Z,100657.16
2023-03-10T23:08:05.014Z,100665.97
2023-03-10T23:13:26.692Z,100663.94
2023-03-10T23:18:48.819Z,100673.00
2023-03-10T23:24:10.601Z,100672.66
2023-03-10T23:29:32.268Z,100669.25
2023-03-10T23:34:53.954Z,100675.88
2023-03-10T23:40:18.260Z,100674.38
2023-03-10T23:45:40.060Z,100679.03
2023-03-10T23:51:03.017Z,100668.97
2023-03-10T23:56:24.722Z,100674.47
